Time;durP1;ratioP1;P1;durP2;ratioP2;P2;SDS_P1;SDS_P2;PMS_P1;PMS_P2;Temp;Humidity;BMP_temperature;BMP_pressure;BME280_temperature;BME280_humidity;BME280_pressure;Samples;Min_cycle;Max_cycle;Signal;HPM_P1;HPM_P2
2023/08/22 00:00:11;;;;;;;;;;;16.50;99.90;;;;;;5069987;28;20044;-76
2023/08/22 00:02:36;;;;;;;0.33;0.33;;;16.50;99.90;;;;;;5074204;28;19924;-75
2023/08/22 00:05:02;;;;;;;;;;;16.50;99.90;;;;;;5076986;28;20393;-76
2023/08/22 00:07:28;;;;;;;0.30;0.30;;;16.50;99.90;;;;;;5086493;28;19916;-77
2023/08/22 00:09:53;;;;;;;;;;;16.50;99.90;;;;;;5083255;28;20039;-78
2023/08/22 00:12:19;;;;;;;0.30;0.30;;;16.60;99.90;;;;;;5067428;28;19916;-75
2023/08/22 00:14:45;;;;;;;;;;;16.60;99.90;;;;;;5054235;28;20036;-79
2023/08/22 00:17:10;;;;;;;0.20;0.20;;;16.60;99.90;;;;;;5086341;28;19924;-74
2023/08/22 00:19:37;;;;;;;;;;;16.60;99.90;;;;;;5081193;28;20071;-73
2023/08/22 00:22:03;;;;;;;0.30;0.30;;;16.60;99.90;;;;;;5083432;28;19930;-75
2023/08/22 00:24:29;;;;;;;0.30;0.30;;;16.60;99.90;;;;;;5061274;28;20055;-75
2023/08/22 00:26:55;;;;;;;;;;;16.60;99.90;;;;;;5084551;28;20032;-73
2023/08/22 00:29:21;;;;;;;0.30;0.20;;;16.60;99.90;;;;;;5100439;28;20035;-73
2023/08/22 00:31:46;;;;;;;;;;;16.70;99.90;;;;;;5072394;28;20047;-74
2023/08/22 00:34:13;;;;;;;0.20;0.20;;;16.70;99.90;;;;;;5077744;28;19923;-73
2023/08/22 00:36:39;;;;;;;0.25;0.25;;;16.70;99.90;;;;;;5080948;28;20042;-76
2023/08/22 00:39:04;;;;;;;;;;;16.70;99.90;;;;;;5072580;28;20047;-75
2023/08/22 00:41:30;;;;;;;0.20;0.20;;;16.70;99.90;;;;;;5076276;28;19928;-76
2023/08/22 00:43:55;;;;;;;;;;;16.70;99.90;;;;;;5059804;28;20077;-76
2023/08/22 00:46:23;;;;;;;0.30;0.30;;;16.70;99.90;;;;;;5081083;28;19950;-76
2023/08/22 00:48:49;;;;;;;0.30;0.30;;;16.60;99.90;;;;;;5054301;28;20067;-79
2023/08/22 00:51:17;;;;;;;0.30;0.30;;;16.60;99.90;;;;;;5055719;28;20122;-75
2023/08/22 00:53:43;;;;;;;0.20;0.20;;;16.60;99.90;;;;;;5084408;28;20051;-77
2023/08/22 00:56:09;;;;;;;;;;;16.50;99.90;;;;;;5065884;28;20039;-80
2023/08/22 00:58:35;;;;;;;0.20;0.20;;;16.40;99.90;;;;;;5080334;28;19919;-75
2023/08/22 01:01:02;;;;;;;0.20;0.20;;;16.40;99.90;;;;;;5062870;28;20062;-77
2023/08/22 01:03:28;;;;;;;0.20;0.20;;;16.30;99.90;;;;;;5079647;28;20501;-80
2023/08/22 01:06:06;;;;;;;;;;;16.30;99.90;;;;;;5042493;28;20048;-79
2023/08/22 01:08:34;;;;;;;0.20;0.20;;;16.30;99.90;;;;;;5082165;28;19981;-78
2023/08/22 01:11:20;;;;;;;0.20;0.20;;;16.30;99.90;;;;;;5081700;28;20035;-78
2023/08/22 01:13:47;;;;;;;0.30;0.30;;;16.30;99.90;;;;;;5059240;28;20086;-78
2023/08/22 01:16:14;;;;;;;0.20;0.20;;;16.20;99.90;;;;;;5071746;28;20048;-78
2023/08/22 01:18:41;;;;;;;0.20;0.20;;;16.30;99.90;;;;;;5072820;28;20071;-76
2023/08/22 01:21:06;;;;;;;0.22;0.22;;;16.30;99.90;;;;;;5064114;28;20122;-78
2023/08/22 01:23:32;;;;;;;;;;;16.30;99.90;;;;;;5077628;28;20442;-76
2023/08/22 01:25:58;;;;;;;0.20;0.20;;;16.30;99.90;;;;;;5059223;28;19927;-79
2023/08/22 01:28:31;;;;;;;0.25;0.25;;;16.30;99.90;;;;;;5067864;28;20598;-78
2023/08/22 01:31:25;;;;;;;0.30;0.30;;;16.30;99.90;;;;;;5085642;28;20071;-78
2023/08/22 01:33:56;;;;;;;0.30;0.30;;;16.30;99.90;;;;;;5084657;28;20101;-79
2023/08/22 01:36:24;;;;;;;0.30;0.30;;;16.20;99.90;;;;;;5082932;28;20049;-76
2023/08/22 01:38:50;;;;;;;0.20;0.20;;;16.20;99.90;;;;;;5074951;28;20059;-79
2023/08/22 01:41:17;;;;;;;0.55;0.55;;;16.20;99.90;;;;;;5080229;28;20428;-78
2023/08/22 01:43:43;;;;;;;0.20;0.20;;;16.20;99.90;;;;;;5079936;28;20500;-79
2023/08/22 01:46:09;;;;;;;0.30;0.30;;;16.20;99.90;;;;;;5083924;28;20036;-78
2023/08/22 01:48:35;;;;;;;;;;;16.20;99.90;;;;;;5085041;28;20047;-77
2023/08/22 01:51:01;;;;;;;0.30;0.30;;;16.20;99.90;;;;;;5083907;28;19924;-79
2023/08/22 01:53:27;;;;;;;0.20;0.20;;;16.10;99.90;;;;;;5053503;28;20073;-80
2023/08/22 01:55:52;;;;;;;;;;;16.10;99.90;;;;;;5065370;28;20497;-79
2023/08/22 01:58:18;;;;;;;0.28;0.28;;;16.10;99.90;;;;;;5068606;28;19916;-77
2023/08/22 02:00:44;;;;;;;;;;;16.10;99.90;;;;;;5085746;28;20043;-78
2023/08/22 02:03:10;;;;;;;0.20;0.20;;;16.00;99.90;;;;;;5080890;28;19920;-78
2023/08/22 02:05:36;;;;;;;0.20;0.20;;;16.00;99.90;;;;;;5077639;28;20035;-79
2023/08/22 02:08:03;;;;;;;;;;;16.00;99.90;;;;;;5070840;28;20041;-78
2023/08/22 02:10:30;;;;;;;0.30;0.30;;;15.90;99.90;;;;;;5085843;28;19927;-77
2023/08/22 02:12:56;;;;;;;0.20;0.20;;;15.90;99.90;;;;;;5063457;28;20130;-78
2023/08/22 02:15:22;;;;;;;;;;;15.90;99.90;;;;;;5076005;28;20123;-78
2023/08/22 02:17:48;;;;;;;0.30;0.30;;;15.80;99.90;;;;;;5078955;28;19920;-75
2023/08/22 02:20:14;;;;;;;0.20;0.20;;;15.80;99.90;;;;;;5064121;28;20055;-77
2023/08/22 02:22:40;;;;;;;0.30;0.30;;;15.70;99.90;;;;;;5089936;28;20031;-75
2023/08/22 02:25:08;;;;;;;0.28;0.28;;;15.70;99.90;;;;;;5080129;28;20435;-79
2023/08/22 02:27:34;;;;;;;0.22;0.22;;;15.70;99.90;;;;;;5090923;28;20035;-78
2023/08/22 02:30:00;;;;;;;0.20;0.20;;;15.60;99.90;;;;;;5066721;28;20756;-79
2023/08/22 02:32:25;;;;;;;0.10;0.10;;;15.60;99.90;;;;;;5056383;28;20040;-78
2023/08/22 02:34:51;;;;;;;0.45;0.45;;;15.50;99.90;;;;;;5069102;28;20383;-76
2023/08/22 02:37:17;;;;;;;;;;;15.60;99.90;;;;;;5076004;28;20093;-78
2023/08/22 02:39:42;;;;;;;0.20;0.20;;;15.50;99.90;;;;;;5084321;28;20281;-80
2023/08/22 02:42:08;;;;;;;0.20;0.20;;;15.50;99.90;;;;;;5064459;28;20176;-77
2023/08/22 02:44:33;;;;;;;;;;;15.40;99.90;;;;;;5082577;28;20035;-77
2023/08/22 02:46:59;;;;;;;0.10;0.10;;;15.40;99.90;;;;;;5062709;28;19920;-79
2023/08/22 02:49:25;;;;;;;0.20;0.20;;;15.30;99.90;;;;;;5084347;28;20036;-75
2023/08/22 02:51:51;;;;;;;;;;;15.30;99.90;;;;;;5071195;28;20139;-77
2023/08/22 02:54:16;;;;;;;0.20;0.20;;;15.20;99.90;;;;;;5078695;28;20309;-79
2023/08/22 02:56:42;;;;;;;0.10;0.10;;;15.20;99.90;;;;;;5087662;28;20436;-79
2023/08/22 02:59:08;;;;;;;0.40;0.40;;;15.10;99.90;;;;;;5085440;28;20470;-77
2023/08/22 03:01:33;;;;;;;;;;;15.10;99.90;;;;;;5085275;28;20485;-77
2023/08/22 03:03:59;;;;;;;0.20;0.20;;;15.10;99.90;;;;;;5083932;28;19927;-78
2023/08/22 03:06:25;;;;;;;;;;;15.00;99.90;;;;;;5083013;28;20125;-77
2023/08/22 03:08:50;;;;;;;0.30;0.30;;;15.00;99.90;;;;;;5070122;28;19924;-77
2023/08/22 03:11:16;;;;;;;0.30;0.30;;;15.00;99.90;;;;;;5080675;28;20139;-78
2023/08/22 03:13:42;;;;;;;;;;;14.90;99.90;;;;;;5049951;28;20036;-76
2023/08/22 03:16:07;;;;;;;0.20;0.20;;;14.90;99.90;;;;;;5078485;28;19920;-76
2023/08/22 03:18:33;;;;;;;0.30;0.30;;;14.90;99.90;;;;;;5073547;28;20127;-76
2023/08/22 03:20:59;;;;;;;0.38;0.38;;;14.80;99.90;;;;;;5057425;28;20050;-76
2023/08/22 03:23:25;;;;;;;0.20;0.20;;;14.80;99.90;;;;;;5076661;28;20116;-74
2023/08/22 03:25:58;;;;;;;;;;;14.80;99.90;;;;;;5060787;28;20158;-77
2023/08/22 03:28:24;;;;;;;0.20;0.20;;;14.80;99.90;;;;;;5066127;28;20442;-76
2023/08/22 03:30:57;;;;;;;0.20;0.20;;;14.80;99.90;;;;;;5074574;28;20044;-77
2023/08/22 03:33:24;;;;;;;0.40;0.40;;;14.80;99.90;;;;;;5080920;28;20048;-75
2023/08/22 03:35:51;;;;;;;0.20;0.20;;;14.70;99.90;;;;;;5079365;28;20051;-78
2023/08/22 03:38:17;;;;;;;0.30;0.30;;;14.70;99.90;;;;;;5062281;28;20042;-77
2023/08/22 03:40:42;;;;;;;0.20;0.20;;;14.60;99.90;;;;;;5081626;28;20504;-77
2023/08/22 03:43:08;;;;;;;;;;;14.60;99.90;;;;;;5061145;28;20036;-78
2023/08/22 03:45:34;;;;;;;0.20;0.20;;;14.60;99.90;;;;;;5080018;28;19916;-77
2023/08/22 03:48:04;;;;;;;;;;;14.60;99.90;;;;;;5047081;28;20469;-76
2023/08/22 03:50:33;;;;;;;0.20;0.20;;;14.60;99.90;;;;;;5072154;28;19916;-78
2023/08/22 03:52:58;;;;;;;0.30;0.30;;;14.60;99.90;;;;;;5065729;28;20068;-76
2023/08/22 03:55:24;;;;;;;0.20;0.20;;;14.50;99.90;;;;;;5073853;28;20090;-77
2023/08/22 03:57:50;;;;;;;0.30;0.30;;;14.50;99.90;;;;;;5079353;28;20047;-80
2023/08/22 04:00:15;;;;;;;;;;;14.50;99.90;;;;;;5083335;28;20127;-79
2023/08/22 04:02:41;;;;;;;0.20;0.20;;;14.50;99.90;;;;;;5080764;28;19926;-80
2023/08/22 04:05:07;;;;;;;;;;;14.50;99.90;;;;;;5056352;28;20598;-78
2023/08/22 04:07:33;;;;;;;0.30;0.30;;;14.40;99.90;;;;;;5090567;28;19977;-77
2023/08/22 04:09:58;;;;;;;0.30;0.30;;;14.40;99.90;;;;;;5089528;28;20088;-79
2023/08/22 04:12:24;;;;;;;0.30;0.30;;;14.30;99.90;;;;;;5059480;28;20044;-77
2023/08/22 04:14:50;;;;;;;;;;;14.40;99.90;;;;;;5054173;28;20473;-77
2023/08/22 04:17:15;;;;;;;1.00;1.00;;;14.40;99.90;;;;;;5082871;28;19959;-77
2023/08/22 04:19:41;;;;;;;0.30;0.30;;;14.30;99.90;;;;;;5087237;28;20035;-79
2023/08/22 04:22:07;;;;;;;0.30;0.30;;;14.30;99.90;;;;;;5067679;28;20062;-76
2023/08/22 04:24:33;;;;;;;;;;;14.20;99.90;;;;;;5084115;28;20042;-76
2023/08/22 04:26:59;;;;;;;0.28;0.28;;;14.20;99.90;;;;;;5090288;28;20318;-76
2023/08/22 04:29:24;;;;;;;0.32;0.32;;;14.20;99.90;;;;;;5064537;28;20032;-79
2023/08/22 04:31:50;;;;;;;;;;;14.20;99.90;;;;;;5069475;28;20050;-78
2023/08/22 04:34:16;;;;;;;0.30;0.30;;;14.20;99.90;;;;;;5085882;28;19972;-74
2023/08/22 04:36:41;;;;;;;;;;;14.20;99.90;;;;;;5075011;28;20074;-76
2023/08/22 04:39:07;;;;;;;0.28;0.28;;;14.20;99.90;;;;;;5084552;28;19927;-75
2023/08/22 04:41:33;;;;;;;0.40;0.40;;;14.20;99.90;;;;;;5082930;28;20198;-74
2023/08/22 04:43:58;;;;;;;0.30;0.30;;;14.20;99.90;;;;;;5058880;28;20401;-76
2023/08/22 04:46:24;;;;;;;;;;;14.20;99.90;;;;;;5070649;28;20042;-79
2023/08/22 04:48:50;;;;;;;0.30;0.30;;;14.30;99.90;;;;;;5078319;28;19926;-77
2023/08/22 04:51:15;;;;;;;0.35;0.35;;;14.30;99.90;;;;;;5083673;28;20564;-77
2023/08/22 04:53:42;;;;;;;0.30;0.30;;;14.40;99.90;;;;;;5069407;28;21109;-74
2023/08/22 04:56:08;;;;;;;0.25;0.25;;;14.50;99.90;;;;;;5078657;28;20039;-77
2023/08/22 04:58:34;;;;;;;;;;;14.60;99.90;;;;;;5052958;28;20408;-76
2023/08/22 05:00:59;;;;;;;0.30;0.30;;;14.70;99.90;;;;;;5083896;28;19926;-76
2023/08/22 05:03:25;;;;;;;0.57;0.57;;;14.80;99.90;;;;;;5083633;28;20055;-76
2023/08/22 05:05:51;;;;;;;;;;;14.80;99.90;;;;;;5084083;28;20763;-74
2023/08/22 05:08:18;;;;;;;0.63;0.40;;;14.90;99.90;;;;;;5064405;28;20312;-72
2023/08/22 05:10:44;;;;;;;1.17;0.95;;;14.90;99.90;;;;;;5080047;28;20051;-77
2023/08/22 05:13:10;;;;;;;0.30;0.30;;;15.00;99.90;;;;;;5085669;28;20040;-75
2023/08/22 05:15:36;;;;;;;;;;;15.00;99.90;;;;;;5080109;28;20044;-78
2023/08/22 05:18:01;;;;;;;0.20;0.20;;;15.10;99.90;;;;;;5074195;28;19926;-76
2023/08/22 05:20:27;;;;;;;;;;;15.10;99.90;;;;;;5056603;28;20044;-74
2023/08/22 05:22:52;;;;;;;0.60;0.60;;;15.20;99.90;;;;;;5064219;28;19916;-76
2023/08/22 05:25:19;;;;;;;0.63;0.63;;;15.20;99.90;;;;;;5053406;28;20126;-76
2023/08/22 05:27:45;;;;;;;0.40;0.40;;;15.20;99.90;;;;;;5087885;28;20123;-75
2023/08/22 05:30:11;;;;;;;0.68;0.57;;;15.40;99.90;;;;;;5059391;28;20150;-75
2023/08/22 05:32:36;;;;;;;;;;;15.40;99.90;;;;;;5049508;28;20084;-74
2023/08/22 05:35:02;;;;;;;0.30;0.30;;;15.50;99.90;;;;;;5061122;28;19926;-76
2023/08/22 05:37:28;;;;;;;;;;;15.50;99.90;;;;;;5055561;28;20050;-77
2023/08/22 05:39:53;;;;;;;0.15;0.15;;;15.60;99.90;;;;;;5080255;28;19919;-76
2023/08/22 05:42:19;;;;;;;0.30;0.30;;;15.70;99.90;;;;;;5069838;28;20044;-76
2023/08/22 05:44:45;;;;;;;0.30;0.30;;;15.80;99.90;;;;;;5069204;28;20042;-76
2023/08/22 05:47:11;;;;;;;0.10;0.10;;;15.90;99.90;;;;;;5063522;28;20414;-75
2023/08/22 05:49:36;;;;;;;;;;;16.00;99.90;;;;;;5081782;28;21777;-77
2023/08/22 05:52:04;;;;;;;0.50;0.50;;;16.10;99.90;;;;;;5069488;28;19926;-75
2023/08/22 05:54:31;;;;;;;0.30;0.30;;;16.20;99.90;;;;;;5062472;28;20040;-76
2023/08/22 05:56:56;;;;;;;0.40;0.40;;;16.30;99.90;;;;;;5078064;28;20043;-75
2023/08/22 05:59:22;;;;;;;;;;;16.50;99.90;;;;;;5084518;28;20535;-76
2023/08/22 06:02:07;;;;;;;0.30;0.30;;;16.50;99.90;;;;;;5139559;27;20402;-76
2023/08/22 06:04:33;;;;;;;0.30;0.30;;;16.60;99.90;;;;;;5102215;28;20050;-76
2023/08/22 06:06:58;;;;;;;;;;;16.70;99.90;;;;;;5118390;27;20030;-76
2023/08/22 06:09:24;;;;;;;0.68;0.63;;;16.70;99.90;;;;;;5121173;27;19941;-76
2023/08/22 06:11:49;;;;;;;;;;;16.90;99.90;;;;;;5106871;27;20034;-76
2023/08/22 06:14:15;;;;;;;12.75;1.65;;;16.90;99.90;;;;;;5105943;28;19920;-75
2023/08/22 06:16:41;;;;;;;;;;;17.00;99.90;;;;;;5105076;27;20049;-76
2023/08/22 06:19:07;;;;;;;0.40;0.40;;;17.10;99.90;;;;;;5103056;28;20371;-75
2023/08/22 06:21:33;;;;;;;;;;;17.20;99.90;;;;;;5091569;27;20048;-77
2023/08/22 06:23:59;;;;;;;0.20;0.20;;;17.40;99.90;;;;;;5106545;28;19919;-75
2023/08/22 06:26:24;;;;;;;;;;;17.50;99.90;;;;;;5125706;27;20046;-76
2023/08/22 06:28:50;;;;;;;0.45;0.45;;;17.50;99.90;;;;;;5118435;27;19992;-76
2023/08/22 06:31:16;;;;;;;;;;;17.60;99.90;;;;;;5106885;27;20047;-75
2023/08/22 06:33:41;;;;;;;0.20;0.20;;;17.60;99.90;;;;;;5088359;27;20318;-75
2023/08/22 06:36:07;;;;;;;;;;;17.70;99.90;;;;;;5097862;27;20081;-76
2023/08/22 06:38:33;;;;;;;0.20;0.20;;;17.60;99.90;;;;;;5120240;27;20344;-76
2023/08/22 06:41:02;;;;;;;;;;;17.70;99.90;;;;;;5118681;27;20045;-75
2023/08/22 06:43:28;;;;;;;0.30;0.30;;;17.80;99.90;;;;;;5124744;27;20750;-75
2023/08/22 06:45:56;;;;;;;;;;;17.90;99.90;;;;;;5093669;27;20134;-76
2023/08/22 06:48:21;;;;;;;0.50;0.50;;;18.00;99.90;;;;;;5119652;27;19919;-76
2023/08/22 06:50:48;;;;;;;;;;;18.20;99.90;;;;;;5102306;27;20049;-77
2023/08/22 06:53:14;;;;;;;0.30;0.30;;;18.40;99.90;;;;;;5116683;27;19934;-76
2023/08/22 06:55:39;;;;;;;;;;;18.50;99.90;;;;;;5087329;27;20468;-76
2023/08/22 06:58:07;;;;;;;0.50;0.50;;;18.60;99.90;;;;;;5101800;27;19927;-76
2023/08/22 07:00:32;;;;;;;0.25;0.25;;;18.70;99.90;;;;;;5103676;27;20047;-75
2023/08/22 07:02:58;;;;;;;;;;;18.80;99.90;;;;;;5103112;28;20047;-75
2023/08/22 07:05:24;;;;;;;0.40;0.40;;;18.90;99.90;;;;;;5101420;27;19923;-73
2023/08/22 07:07:49;;;;;;;;;;;18.90;99.90;;;;;;5101284;28;20071;-74
2023/08/22 07:10:15;;;;;;;0.22;0.22;;;19.00;99.90;;;;;;5117510;27;19984;-75
2023/08/22 07:12:40;;;;;;;;;;;19.00;99.90;;;;;;5092798;28;20040;-78
2023/08/22 07:15:07;;;;;;;0.30;0.30;;;19.00;99.90;;;;;;5103276;27;19916;-78
2023/08/22 07:17:32;;;;;;;0.65;0.65;;;19.00;99.90;;;;;;5107157;28;20043;-79
2023/08/22 07:19:58;;;;;;;0.40;0.40;;;19.10;99.90;;;;;;5107420;27;20100;-79
2023/08/22 07:22:24;;;;;;;;;;;19.10;99.90;;;;;;5105443;28;20038;-78
2023/08/22 07:24:49;;;;;;;0.68;0.68;;;19.10;99.90;;;;;;5081521;28;19920;-79
2023/08/22 07:27:15;;;;;;;;;;;19.20;99.90;;;;;;5090268;28;20077;-79
2023/08/22 07:29:41;;;;;;;0.90;0.90;;;19.30;99.90;;;;;;5072526;27;20406;-77
2023/08/22 07:32:09;;;;;;;;;;;19.40;99.90;;;;;;5093100;28;20164;-77
2023/08/22 07:34:35;;;;;;;0.55;0.50;;;19.50;99.90;;;;;;5093204;28;19916;-77
2023/08/22 07:37:01;;;;;;;0.40;0.40;;;19.50;99.90;;;;;;5093668;28;20058;-77
2023/08/22 07:39:28;;;;;;;0.50;0.50;;;19.60;99.90;;;;;;5107440;28;20035;-77
2023/08/22 07:41:54;;;;;;;0.20;0.20;;;19.60;99.90;;;;;;5058416;28;20039;-77
2023/08/22 07:44:20;;;;;;;0.63;0.63;;;19.70;99.90;;;;;;5088041;28;20040;-77
2023/08/22 07:46:46;;;;;;;0.90;0.90;;;19.70;99.90;;;;;;5089237;28;20438;-77
2023/08/22 07:49:11;;;;;;;0.20;0.20;;;19.80;99.90;;;;;;5075442;28;20478;-77
2023/08/22 07:51:37;;;;;;;0.20;0.20;;;20.00;99.90;;;;;;5101608;28;20153;-77
2023/08/22 07:54:03;;;;;;;;;;;;;;;;;;5092213;28;20047;-77
2023/08/22 07:56:29;;;;;;;0.30;0.30;;;20.20;99.90;;;;;;5105791;28;20339;-78
2023/08/22 07:58:55;;;;;;;;;;;20.20;99.90;;;;;;5097810;28;20071;-78
2023/08/22 08:01:20;;;;;;;0.57;0.57;;;20.30;99.90;;;;;;5108113;27;19932;-77
2023/08/22 08:03:46;;;;;;;1.05;0.77;;;20.20;99.90;;;;;;5089492;27;20039;-78
2023/08/22 08:06:12;;;;;;;0.63;0.63;;;20.10;99.90;;;;;;5076392;28;20036;-80
2023/08/22 08:08:37;;;;;;;;;;;20.10;99.90;;;;;;5108192;28;20037;-79
2023/08/22 08:11:03;;;;;;;0.45;0.45;;;20.10;99.90;;;;;;5105636;28;19941;-79
2023/08/22 08:13:29;;;;;;;0.57;0.40;;;20.20;99.90;;;;;;5073279;27;20401;-79
2023/08/22 08:15:54;;;;;;;;;;;20.30;99.90;;;;;;5074574;28;20050;-79
2023/08/22 08:18:21;;;;;;;0.20;0.20;;;20.50;99.90;;;;;;5061171;27;19915;-78
2023/08/22 08:20:47;;;;;;;0.20;0.20;;;20.70;99.90;;;;;;5088935;27;20129;-78
2023/08/22 08:23:12;;;;;;;0.73;0.73;;;20.80;99.90;;;;;;5094604;28;20035;-79
2023/08/22 08:25:38;;;;;;;0.30;0.30;;;21.00;99.90;;;;;;5106524;27;20104;-78
2023/08/22 08:28:05;;;;;;;11.93;2.33;;;21.20;99.90;;;;;;5075397;28;20047;-79
2023/08/22 08:30:31;;;;;;;1.30;0.60;;;21.30;99.90;;;;;;5071965;27;20048;-78
2023/08/22 08:32:57;;;;;;;2.22;0.32;;;21.40;99.90;;;;;;5095283;28;20051;-78
2023/08/22 08:35:23;;;;;;;1.30;1.10;;;21.90;99.90;;;;;;5112242;27;20043;-78
2023/08/22 08:37:49;;;;;;;0.40;0.40;;;21.90;99.90;;;;;;5101777;27;20185;-79
2023/08/22 08:40:15;;;;;;;0.95;0.95;;;22.10;99.90;;;;;;5094286;27;20094;-79
2023/08/22 08:42:42;;;;;;;0.40;0.40;;;22.00;99.90;;;;;;5088655;28;20035;-77
2023/08/22 08:45:08;;;;;;;0.40;0.40;;;22.20;99.90;;;;;;5092405;27;20176;-78
2023/08/22 08:47:34;;;;;;;0.40;0.40;;;22.20;99.90;;;;;;5097103;28;20160;-77
2023/08/22 08:50:01;;;;;;;0.55;0.40;;;21.50;99.90;;;;;;5071724;28;20036;-77
2023/08/22 08:52:29;;;;;;;0.45;0.45;;;22.40;99.90;;;;;;5091836;28;20066;-80
2023/08/22 08:54:56;;;;;;;0.30;0.30;;;22.30;99.90;;;;;;5089378;27;20113;-78
2023/08/22 08:57:28;;;;;;;0.40;0.40;;;22.00;99.90;;;;;;5108719;27;20045;-77
2023/08/22 08:59:54;;;;;;;0.30;0.30;;;22.10;99.90;;;;;;5112428;27;20045;-78
2023/08/22 09:02:20;;;;;;;0.20;0.20;;;22.30;99.90;;;;;;5116743;27;20103;-77
2023/08/22 09:04:46;;;;;;;0.20;0.20;;;22.50;99.90;;;;;;5091739;28;20162;-79
2023/08/22 09:07:11;;;;;;;0.45;0.45;;;22.50;99.90;;;;;;5109637;27;20441;-77
2023/08/22 09:09:37;;;;;;;0.40;0.40;;;22.40;99.90;;;;;;5102376;28;20028;-79
2023/08/22 09:12:09;;;;;;;0.40;0.40;;;22.40;99.90;;;;;;5085980;28;20035;-77
2023/08/22 09:14:43;;;;;;;0.75;0.75;;;22.30;99.90;;;;;;5100515;27;20614;-80
2023/08/22 09:17:09;;;;;;;0.20;0.20;;;22.30;99.90;;;;;;5108264;27;20050;-77
2023/08/22 09:19:35;;;;;;;0.57;0.30;;;22.30;99.90;;;;;;5076341;28;20036;-76
2023/08/22 09:22:03;;;;;;;0.17;0.17;;;22.10;99.90;;;;;;5080800;28;20039;-78
2023/08/22 09:24:30;;;;;;;0.30;0.30;;;22.10;99.90;;;;;;5107843;27;20130;-78
2023/08/22 09:26:56;;;;;;;0.55;0.55;;;22.10;99.90;;;;;;5105522;27;20448;-79
2023/08/22 09:29:30;;;;;;;0.32;0.32;;;22.10;99.90;;;;;;5109612;27;20149;-79
2023/08/22 09:32:04;;;;;;;0.50;0.38;;;22.10;99.90;;;;;;5108690;27;20079;-79
2023/08/22 09:34:30;;;;;;;0.20;0.20;;;22.20;99.90;;;;;;5093491;27;20040;-79
2023/08/22 09:36:56;;;;;;;0.57;0.57;;;22.30;99.90;;;;;;5085564;28;20051;-79
2023/08/22 09:39:23;;;;;;;0.20;0.20;;;22.20;99.90;;;;;;5072077;28;20035;-78
2023/08/22 09:41:54;;;;;;;2.30;2.08;;;22.60;99.90;;;;;;5102328;27;20088;-79
2023/08/22 09:44:25;;;;;;;0.22;0.22;;;22.70;99.90;;;;;;5101124;28;20455;-80
2023/08/22 09:46:52;;;;;;;0.30;0.30;;;22.80;99.90;;;;;;5086068;28;20046;-78
2023/08/22 09:49:19;;;;;;;0.20;0.20;;;22.90;99.90;;;;;;5072304;28;20039;-77
2023/08/22 09:51:47;;;;;;;0.20;0.20;;;23.10;99.90;;;;;;5103839;27;20376;-77
2023/08/22 09:54:14;;;;;;;0.10;0.10;;;22.70;99.90;;;;;;5101105;28;20051;-78
2023/08/22 09:56:41;;;;;;;0.20;0.20;;;22.90;99.90;;;;;;5083145;28;20049;-80
2023/08/22 09:59:07;;;;;;;0.20;0.20;;;22.60;99.90;;;;;;5097607;28;20044;-78
2023/08/22 10:01:37;;;;;;;0.60;0.60;;;22.70;99.90;;;;;;5108099;28;20058;-77
2023/08/22 10:04:06;;;;;;;0.15;0.15;;;22.70;99.90;;;;;;5106399;28;20046;-78
2023/08/22 10:06:34;;;;;;;0.32;0.32;;;22.90;99.90;;;;;;5071098;28;20092;-79
2023/08/22 10:09:07;;;;;;;0.40;0.40;;;23.00;99.90;;;;;;5096626;28;20032;-78
2023/08/22 10:11:38;;;;;;;0.38;0.38;;;23.30;99.90;;;;;;5100469;28;20032;-78
2023/08/22 10:14:05;;;;;;;0.30;0.30;;;23.20;99.90;;;;;;5099936;28;20388;-79
2023/08/22 10:16:31;;;;;;;0.65;0.65;;;22.40;99.90;;;;;;5088264;28;20105;-78
2023/08/22 10:19:02;;;;;;;0.45;0.45;;;23.10;99.90;;;;;;5105378;28;20052;-78
2023/08/22 10:21:49;;;;;;;0.52;0.45;;;23.10;99.90;;;;;;5090728;28;20079;-78
2023/08/22 10:24:30;;;;;;;0.60;0.60;;;22.80;99.90;;;;;;5098133;28;20070;-79
2023/08/22 10:27:02;;;;;;;0.55;0.55;;;23.30;99.90;;;;;;5083195;28;20027;-78
2023/08/22 10:30:09;;;;;;;0.68;0.68;;;23.10;99.90;;;;;;5088863;28;20036;-80
2023/08/22 10:32:35;;;;;;;1.13;0.73;;;23.40;99.90;;;;;;5101406;28;20042;-79
2023/08/22 10:35:03;;;;;;;0.30;0.30;;;23.30;99.90;;;;;;5064129;28;20048;-78
2023/08/22 10:37:29;;;;;;;0.20;0.20;;;23.40;99.90;;;;;;5089281;28;20472;-79
2023/08/22 10:39:58;;;;;;;0.20;0.20;;;;;;;;;;5084964;28;20097;-78
2023/08/22 10:42:25;;;;;;;0.50;0.50;;;23.70;99.90;;;;;;5081981;28;20366;-81
2023/08/22 10:44:53;;;;;;;0.22;0.22;;;23.70;99.90;;;;;;5075780;28;20100;-79
2023/08/22 10:47:21;;;;;;;0.20;0.20;;;23.80;99.90;;;;;;5086118;28;20093;-79
2023/08/22 10:49:51;;;;;;;1.17;0.45;;;23.90;99.90;;;;;;5099409;28;20046;-79
2023/08/22 10:52:18;;;;;;;0.28;0.28;;;24.20;99.90;;;;;;5096086;28;20052;-78
2023/08/22 10:55:00;;;;;;;0.80;0.80;;;24.40;99.90;;;;;;5093944;28;20415;-77
2023/08/22 10:57:27;;;;;;;0.20;0.20;;;24.60;99.90;;;;;;5093560;27;20035;-75
2023/08/22 10:59:59;;;;;;;0.20;0.20;;;24.60;99.90;;;;;;5105743;27;20043;-78
2023/08/22 11:02:28;;;;;;;0.20;0.20;;;24.70;99.90;;;;;;5093559;28;20062;-77
2023/08/22 11:04:58;;;;;;;0.28;0.28;;;24.80;99.90;;;;;;5092051;28;20127;-79
2023/08/22 11:07:25;;;;;;;1.05;0.80;;;24.90;99.90;;;;;;5102033;27;20040;-76
2023/08/22 11:09:51;;;;;;;0.30;0.30;;;24.80;99.90;;;;;;5085506;28;20516;-77
2023/08/22 11:12:21;;;;;;;0.32;0.32;;;24.50;99.90;;;;;;5111650;27;20063;-77
2023/08/22 11:14:48;;;;;;;0.55;0.50;;;24.50;99.90;;;;;;5091642;28;20115;-76
2023/08/22 11:17:18;;;;;;;0.22;0.22;;;24.60;99.90;;;;;;5108187;27;20165;-77
2023/08/22 11:19:45;;;;;;;0.40;0.40;;;24.90;99.90;;;;;;5110151;27;20039;-79
2023/08/22 11:22:11;;;;;;;0.40;0.40;;;25.10;99.90;;;;;;5079605;28;20044;-76
2023/08/22 11:24:40;;;;;;;0.60;0.60;;;25.30;99.90;;;;;;5107396;27;20035;-78
2023/08/22 11:27:06;;;;;;;0.28;0.28;;;25.50;99.90;;;;;;5108348;27;20078;-77
2023/08/22 11:29:45;;;;;;;0.88;0.65;;;25.50;99.90;;;;;;5111599;27;20071;-77
2023/08/22 11:32:31;;;;;;;0.70;0.70;;;25.60;99.90;;;;;;5094089;28;20035;-78
2023/08/22 11:35:03;;;;;;;;;;;25.70;99.90;;;;;;5114321;27;20048;-79
2023/08/22 11:37:30;;;;;;;0.17;0.17;;;25.70;99.90;;;;;;5106659;27;19990;-77
2023/08/22 11:40:00;;;;;;;0.22;0.22;;;25.60;99.90;;;;;;5079478;28;20044;-77
2023/08/22 11:42:29;;;;;;;0.43;0.43;;;25.70;99.90;;;;;;5102598;28;20457;-74
2023/08/22 11:45:04;;;;;;;0.55;0.55;;;25.60;99.90;;;;;;5089527;28;20035;-77
2023/08/22 11:47:36;;;;;;;0.20;0.20;;;25.40;99.90;;;;;;5092211;27;20048;-77
2023/08/22 11:50:03;;;;;;;0.30;0.30;;;25.40;99.90;;;;;;5101737;28;20104;-76
2023/08/22 11:52:29;;;;;;;0.30;0.30;;;25.40;99.90;;;;;;5106881;28;20046;-77
2023/08/22 11:55:03;;;;;;;0.20;0.20;;;25.10;99.90;;;;;;5113239;27;20035;-75
2023/08/22 11:57:29;;;;;;;0.28;0.28;;;24.90;99.90;;;;;;5107272;28;20431;-75
2023/08/22 11:59:55;;;;;;;0.30;0.30;;;24.80;99.90;;;;;;5104957;27;20122;-78
2023/08/22 12:02:24;;;;;;;0.20;0.20;;;25.00;99.90;;;;;;5079952;28;20120;-76
2023/08/22 12:04:49;;;;;;;0.20;0.20;;;25.20;99.90;;;;;;5102420;27;20047;-76
2023/08/22 12:07:15;;;;;;;0.63;0.63;;;25.40;99.90;;;;;;5105176;27;20714;-76
2023/08/22 12:09:41;;;;;;;0.52;0.32;;;25.60;99.90;;;;;;5094116;28;20036;-75
2023/08/22 12:12:11;;;;;;;0.40;0.40;;;25.70;99.90;;;;;;5111986;27;20051;-75
2023/08/22 12:14:37;;;;;;;0.20;0.20;;;25.80;99.90;;;;;;5103884;28;20044;-77
2023/08/22 12:17:03;;;;;;;0.20;0.20;;;25.90;99.90;;;;;;5090288;27;20471;-75
2023/08/22 12:19:29;;;;;;;0.40;0.40;;;25.90;99.90;;;;;;5085856;28;20100;-75
2023/08/22 12:21:57;;;;;;;0.30;0.30;;;26.00;99.90;;;;;;5092135;28;20094;-76
2023/08/22 12:24:23;;;;;;;0.20;0.20;;;25.80;99.90;;;;;;5088382;28;20107;-76
2023/08/22 12:26:48;;;;;;;0.30;0.30;;;25.60;99.90;;;;;;5092978;28;20188;-75
2023/08/22 12:29:14;;;;;;;0.43;0.43;;;25.50;99.90;;;;;;5107617;28;20127;-74
2023/08/22 12:31:40;;;;;;;0.43;0.43;;;25.80;99.90;;;;;;5109087;27;20035;-74
2023/08/22 12:34:05;;;;;;;0.35;0.35;;;26.00;99.90;;;;;;5099825;27;20074;-76
2023/08/22 12:36:31;;;;;;;0.30;0.30;;;26.00;99.90;;;;;;5104023;27;20120;-75
2023/08/22 12:38:57;;;;;;;0.13;0.13;;;26.10;99.90;;;;;;5073538;28;20152;-75
2023/08/22 12:41:22;;;;;;;0.20;0.20;;;26.10;99.90;;;;;;5109578;27;20044;-76
2023/08/22 12:43:48;;;;;;;0.20;0.20;;;26.10;99.90;;;;;;5106155;28;20039;-77
2023/08/22 12:46:14;;;;;;;0.20;0.20;;;26.20;99.90;;;;;;5112232;27;20154;-74
2023/08/22 12:48:39;;;;;;;0.20;0.20;;;26.60;99.90;;;;;;5094936;28;20042;-75
2023/08/22 12:51:05;;;;;;;0.35;0.35;;;26.80;99.90;;;;;;5105217;27;20044;-78
2023/08/22 12:53:31;;;;;;;0.10;0.10;;;27.10;99.90;;;;;;5101211;28;20504;-75
2023/08/22 12:55:56;;;;;;;0.30;0.30;;;27.20;99.90;;;;;;5076965;27;20472;-76
2023/08/22 12:58:22;;;;;;;0.30;0.30;;;27.20;99.90;;;;;;5101790;28;20128;-76
2023/08/22 13:00:48;;;;;;;0.65;0.50;;;27.10;99.90;;;;;;5103034;27;20047;-77